sensor_id;sensor_type;location;lat;lon;timestamp;temperature;humidity
5392;DHT22;2719;53.624;9.786;2022-12-10T00:00:03;3.30;99.90
5392;DHT22;2719;53.624;9.786;2022-12-10T00:02:30;3.20;99.90
5392;DHT22;2719;53.624;9.786;2022-12-10T00:04:58;3.20;99.90
5392;DHT22;2719;53.624;9.786;2022-12-10T00:07:25;3.20;99.90
5392;DHT22;2719;53.624;9.786;2022-12-10T00:09:51;3.20;99.90
5392;DHT22;2719;53.624;9.786;2022-12-10T00:12:18;3.20;99.90
5392;DHT22;2719;53.624;9.786;2022-12-10T00:14:45;3.30;99.90
5392;DHT22;2719;53.624;9.786;2022-12-10T00:17:12;3.40;99.90
5392;DHT22;2719;53.624;9.786;2022-12-10T00:19:38;3.50;99.90
5392;DHT22;2719;53.624;9.786;2022-12-10T00:22:06;3.50;99.90
5392;DHT22;2719;53.624;9.786;2022-12-10T00:24:33;3.60;99.90
5392;DHT22;2719;53.624;9.786;2022-12-10T00:27:00;3.60;99.90
5392;DHT22;2719;53.624;9.786;2022-12-10T00:29:26;3.60;99.90
5392;DHT22;2719;53.624;9.786;2022-12-10T00:31:53;3.50;99.90
5392;DHT22;2719;53.624;9.786;2022-12-10T00:34:20;3.40;99.90
5392;DHT22;2719;53.624;9.786;2022-12-10T00:36:47;3.50;99.90
5392;DHT22;2719;53.624;9.786;2022-12-10T00:39:17;3.50;99.90
5392;DHT22;2719;53.624;9.786;2022-12-10T00:41:44;3.50;99.90
5392;DHT22;2719;53.624;9.786;2022-12-10T00:44:11;3.50;99.90
5392;DHT22;2719;53.624;9.786;2022-12-10T00:46:39;3.50;99.90
5392;DHT22;2719;53.624;9.786;2022-12-10T00:49:05;3.40;99.90
5392;DHT22;2719;53.624;9.786;2022-12-10T00:51:32;3.40;99.90
5392;DHT22;2719;53.624;9.786;2022-12-10T00:53:59;3.30;99.90
5392;DHT22;2719;53.624;9.786;2022-12-10T00:56:29;3.40;99.90
5392;DHT22;2719;53.624;9.786;2022-12-10T00:58:56;3.50;99.90
5392;DHT22;2719;53.624;9.786;2022-12-10T01:01:25;3.30;99.90
5392;DHT22;2719;53.624;9.786;2022-12-10T01:03:54;3.20;99.90
5392;DHT22;2719;53.624;9.786;2022-12-10T01:06:24;3.30;99.90
5392;DHT22;2719;53.624;9.786;2022-12-10T01:08:52;3.30;99.90
5392;DHT22;2719;53.624;9.786;2022-12-10T01:11:20;3.30;99.90
5392;DHT22;2719;53.624;9.786;2022-12-10T01:13:49;3.30;99.90
5392;DHT22;2719;53.624;9.786;2022-12-10T01:16:18;3.40;99.90
5392;DHT22;2719;53.624;9.786;2022-12-10T01:18:45;3.50;99.90
5392;DHT22;2719;53.624;9.786;2022-12-10T01:21:14;3.50;99.90
5392;DHT22;2719;53.624;9.786;2022-12-10T01:23:43;3.50;99.90
5392;DHT22;2719;53.624;9.786;2022-12-10T01:26:12;3.50;99.90
5392;DHT22;2719;53.624;9.786;2022-12-10T01:28:40;3.50;99.90
5392;DHT22;2719;53.624;9.786;2022-12-10T01:31:11;3.50;99.90
5392;DHT22;2719;53.624;9.786;2022-12-10T01:33:38;3.40;99.90
5392;DHT22;2719;53.624;9.786;2022-12-10T01:36:07;3.50;99.90
5392;DHT22;2719;53.624;9.786;2022-12-10T01:38:34;3.50;99.90
5392;DHT22;2719;53.624;9.786;2022-12-10T01:41:01;3.50;99.90
5392;DHT22;2719;53.624;9.786;2022-12-10T01:43:49;3.50;99.90
5392;DHT22;2719;53.624;9.786;2022-12-10T01:46:17;3.60;99.90
5392;DHT22;2719;53.624;9.786;2022-12-10T01:48:44;3.50;99.90
5392;DHT22;2719;53.624;9.786;2022-12-10T01:51:12;3.50;99.90
5392;DHT22;2719;53.624;9.786;2022-12-10T01:53:39;3.40;99.90
5392;DHT22;2719;53.624;9.786;2022-12-10T01:56:08;3.40;99.90
5392;DHT22;2719;53.624;9.786;2022-12-10T01:58:35;3.40;99.90
5392;DHT22;2719;53.624;9.786;2022-12-10T02:01:07;3.30;99.90
5392;DHT22;2719;53.624;9.786;2022-12-10T02:03:51;3.30;99.90
5392;DHT22;2719;53.624;9.786;2022-12-10T02:09:18;3.30;99.90
5392;DHT22;2719;53.624;9.786;2022-12-10T02:11:51;3.30;99.90
5392;DHT22;2719;53.624;9.786;2022-12-10T02:14:28;3.20;99.90
5392;DHT22;2719;53.624;9.786;2022-12-10T02:16:59;3.20;99.90
5392;DHT22;2719;53.624;9.786;2022-12-10T02:19:44;3.20;99.90
5392;DHT22;2719;53.624;9.786;2022-12-10T02:22:14;3.10;99.90
5392;DHT22;2719;53.624;9.786;2022-12-10T02:24:44;3.10;99.90
5392;DHT22;2719;53.624;9.786;2022-12-10T02:27:15;3.10;99.90
5392;DHT22;2719;53.624;9.786;2022-12-10T02:29:46;3.10;99.90
5392;DHT22;2719;53.624;9.786;2022-12-10T02:32:17;3.20;99.90
5392;DHT22;2719;53.624;9.786;2022-12-10T02:34:48;3.20;99.90
5392;DHT22;2719;53.624;9.786;2022-12-10T02:37:21;3.30;99.90
5392;DHT22;2719;53.624;9.786;2022-12-10T02:39:50;3.20;99.90
5392;DHT22;2719;53.624;9.786;2022-12-10T02:42:19;3.20;99.90
5392;DHT22;2719;53.624;9.786;2022-12-10T02:44:49;3.30;99.90
5392;DHT22;2719;53.624;9.786;2022-12-10T02:47:18;3.40;99.90
5392;DHT22;2719;53.624;9.786;2022-12-10T02:49:47;3.40;99.90
5392;DHT22;2719;53.624;9.786;2022-12-10T02:52:18;3.50;99.90
5392;DHT22;2719;53.624;9.786;2022-12-10T02:54:46;3.50;99.90
5392;DHT22;2719;53.624;9.786;2022-12-10T02:57:28;3.50;99.90
5392;DHT22;2719;53.624;9.786;2022-12-10T03:00:04;3.60;99.90
5392;DHT22;2719;53.624;9.786;2022-12-10T03:02:39;3.40;99.90
5392;DHT22;2719;53.624;9.786;2022-12-10T03:05:14;3.30;99.90
5392;DHT22;2719;53.624;9.786;2022-12-10T03:07:46;3.30;99.90
5392;DHT22;2719;53.624;9.786;2022-12-10T03:10:20;3.40;99.90
5392;DHT22;2719;53.624;9.786;2022-12-10T03:12:51;3.30;99.90
5392;DHT22;2719;53.624;9.786;2022-12-10T03:15:23;3.30;99.90
5392;DHT22;2719;53.624;9.786;2022-12-10T03:17:50;3.40;99.90
5392;DHT22;2719;53.624;9.786;2022-12-10T03:20:17;3.40;99.90
5392;DHT22;2719;53.624;9.786;2022-12-10T03:22:46;3.30;99.90
5392;DHT22;2719;53.624;9.786;2022-12-10T03:25:15;3.30;99.90
5392;DHT22;2719;53.624;9.786;2022-12-10T03:27:45;3.40;99.90
5392;DHT22;2719;53.624;9.786;2022-12-10T03:30:12;3.50;99.90
5392;DHT22;2719;53.624;9.786;2022-12-10T03:32:40;3.50;99.90
5392;DHT22;2719;53.624;9.786;2022-12-10T03:35:09;3.50;99.90
5392;DHT22;2719;53.624;9.786;2022-12-10T03:37:36;3.60;99.90
5392;DHT22;2719;53.624;9.786;2022-12-10T03:40:05;3.60;99.90
5392;DHT22;2719;53.624;9.786;2022-12-10T03:42:34;3.60;99.90
5392;DHT22;2719;53.624;9.786;2022-12-10T03:45:02;3.60;99.90
5392;DHT22;2719;53.624;9.786;2022-12-10T03:47:29;3.60;99.90
5392;DHT22;2719;53.624;9.786;2022-12-10T03:49:57;3.60;99.90
5392;DHT22;2719;53.624;9.786;2022-12-10T03:52:24;3.70;99.90
5392;DHT22;2719;53.624;9.786;2022-12-10T03:54:51;3.70;99.90
5392;DHT22;2719;53.624;9.786;2022-12-10T03:57:17;3.70;99.90
5392;DHT22;2719;53.624;9.786;2022-12-10T03:59:44;3.70;99.90
5392;DHT22;2719;53.624;9.786;2022-12-10T04:02:11;3.80;99.90
5392;DHT22;2719;53.624;9.786;2022-12-10T04:04:37;3.60;99.90
5392;DHT22;2719;53.624;9.786;2022-12-10T04:07:05;3.60;99.90
5392;DHT22;2719;53.624;9.786;2022-12-10T04:09:32;3.60;99.90
5392;DHT22;2719;53.624;9.786;2022-12-10T04:11:59;3.70;99.90
5392;DHT22;2719;53.624;9.786;2022-12-10T04:14:27;3.70;99.90
5392;DHT22;2719;53.624;9.786;2022-12-10T04:17:11;3.60;99.90
5392;DHT22;2719;53.624;9.786;2022-12-10T04:19:38;3.70;99.90
5392;DHT22;2719;53.624;9.786;2022-12-10T04:22:07;3.60;99.90
5392;DHT22;2719;53.624;9.786;2022-12-10T04:24:52;3.70;99.90
5392;DHT22;2719;53.624;9.786;2022-12-10T04:27:37;3.60;99.90
5392;DHT22;2719;53.624;9.786;2022-12-10T04:30:07;3.60;99.90
5392;DHT22;2719;53.624;9.786;2022-12-10T04:32:34;3.50;99.90
5392;DHT22;2719;53.624;9.786;2022-12-10T04:35:01;3.50;99.90
5392;DHT22;2719;53.624;9.786;2022-12-10T04:37:29;3.40;99.90
5392;DHT22;2719;53.624;9.786;2022-12-10T04:39:57;3.40;99.90
5392;DHT22;2719;53.624;9.786;2022-12-10T04:42:23;3.20;99.90
5392;DHT22;2719;53.624;9.786;2022-12-10T04:44:50;3.20;99.90
5392;DHT22;2719;53.624;9.786;2022-12-10T04:47:17;3.20;99.90
5392;DHT22;2719;53.624;9.786;2022-12-10T04:49:43;3.30;99.90
5392;DHT22;2719;53.624;9.786;2022-12-10T04:52:11;3.40;99.90
5392;DHT22;2719;53.624;9.786;2022-12-10T04:54:39;3.40;99.90
5392;DHT22;2719;53.624;9.786;2022-12-10T04:57:06;3.30;99.90
5392;DHT22;2719;53.624;9.786;2022-12-10T04:59:34;3.50;99.90
5392;DHT22;2719;53.624;9.786;2022-12-10T05:02:02;3.60;99.90
5392;DHT22;2719;53.624;9.786;2022-12-10T05:04:28;3.60;99.90
5392;DHT22;2719;53.624;9.786;2022-12-10T05:06:55;3.70;99.90
5392;DHT22;2719;53.624;9.786;2022-12-10T05:09:22;3.70;99.90
5392;DHT22;2719;53.624;9.786;2022-12-10T05:11:50;3.70;99.90
5392;DHT22;2719;53.624;9.786;2022-12-10T05:14:17;3.70;99.90
5392;DHT22;2719;53.624;9.786;2022-12-10T05:16:44;3.80;99.90
5392;DHT22;2719;53.624;9.786;2022-12-10T05:19:11;3.80;99.90
5392;DHT22;2719;53.624;9.786;2022-12-10T05:21:37;3.80;99.90
5392;DHT22;2719;53.624;9.786;2022-12-10T05:24:22;3.80;99.90
5392;DHT22;2719;53.624;9.786;2022-12-10T05:26:50;3.80;99.90
5392;DHT22;2719;53.624;9.786;2022-12-10T05:29:18;3.80;99.90
5392;DHT22;2719;53.624;9.786;2022-12-10T05:31:45;3.80;99.90
5392;DHT22;2719;53.624;9.786;2022-12-10T05:34:12;3.80;99.90
5392;DHT22;2719;53.624;9.786;2022-12-10T05:36:39;3.80;99.90
5392;DHT22;2719;53.624;9.786;2022-12-10T05:39:06;3.80;99.90
5392;DHT22;2719;53.624;9.786;2022-12-10T05:41:35;3.80;99.90
5392;DHT22;2719;53.624;9.786;2022-12-10T05:44:04;3.80;99.90
5392;DHT22;2719;53.624;9.786;2022-12-10T05:46:32;3.90;99.90
5392;DHT22;2719;53.624;9.786;2022-12-10T05:49:01;3.90;99.90
5392;DHT22;2719;53.624;9.786;2022-12-10T05:51:30;3.90;99.90
5392;DHT22;2719;53.624;9.786;2022-12-10T05:53:58;4.00;99.90
5392;DHT22;2719;53.624;9.786;2022-12-10T05:56:26;4.00;99.90
5392;DHT22;2719;53.624;9.786;2022-12-10T05:58:56;4.00;99.90
5392;DHT22;2719;53.624;9.786;2022-12-10T06:01:26;3.80;99.90
5392;DHT22;2719;53.624;9.786;2022-12-10T06:03:53;3.70;99.90
5392;DHT22;2719;53.624;9.786;2022-12-10T06:06:20;3.80;99.90
5392;DHT22;2719;53.624;9.786;2022-12-10T06:08:48;3.70;99.90
5392;DHT22;2719;53.624;9.786;2022-12-10T06:11:15;3.70;99.90
5392;DHT22;2719;53.624;9.786;2022-12-10T06:13:42;3.70;99.90
5392;DHT22;2719;53.624;9.786;2022-12-10T06:16:10;3.80;99.90
5392;DHT22;2719;53.624;9.786;2022-12-10T06:18:38;3.80;99.90
5392;DHT22;2719;53.624;9.786;2022-12-10T06:21:06;3.90;99.90
5392;DHT22;2719;53.624;9.786;2022-12-10T06:23:33;3.90;99.90
5392;DHT22;2719;53.624;9.786;2022-12-10T06:26:03;3.90;99.90
5392;DHT22;2719;53.624;9.786;2022-12-10T06:28:30;3.90;99.90
5392;DHT22;2719;53.624;9.786;2022-12-10T06:30:57;3.60;99.90
5392;DHT22;2719;53.624;9.786;2022-12-10T06:33:24;3.70;99.90
5392;DHT22;2719;53.624;9.786;2022-12-10T06:35:52;3.60;99.90
5392;DHT22;2719;53.624;9.786;2022-12-10T06:38:19;3.60;99.90
5392;DHT22;2719;53.624;9.786;2022-12-10T06:40:46;3.60;99.90
5392;DHT22;2719;53.624;9.786;2022-12-10T06:43:13;3.70;99.90
5392;DHT22;2719;53.624;9.786;2022-12-10T06:45:39;3.70;99.90
5392;DHT22;2719;53.624;9.786;2022-12-10T06:48:07;3.70;99.90
5392;DHT22;2719;53.624;9.786;2022-12-10T06:50:34;3.70;99.90
5392;DHT22;2719;53.624;9.786;2022-12-10T06:53:03;3.60;99.90
5392;DHT22;2719;53.624;9.786;2022-12-10T06:55:30;3.50;99.90
5392;DHT22;2719;53.624;9.786;2022-12-10T06:57:56;3.50;99.90
5392;DHT22;2719;53.624;9.786;2022-12-10T07:00:23;3.60;99.90
5392;DHT22;2719;53.624;9.786;2022-12-10T07:02:50;3.50;99.90
5392;DHT22;2719;53.624;9.786;2022-12-10T07:05:16;3.60;99.90
5392;DHT22;2719;53.624;9.786;2022-12-10T07:07:43;3.60;99.90
5392;DHT22;2719;53.624;9.786;2022-12-10T07:10:12;3.70;99.90
5392;DHT22;2719;53.624;9.786;2022-12-10T07:12:39;3.70;99.90
5392;DHT22;2719;53.624;9.786;2022-12-10T07:15:07;3.70;99.90
5392;DHT22;2719;53.624;9.786;2022-12-10T07:17:34;3.60;99.90
5392;DHT22;2719;53.624;9.786;2022-12-10T07:20:00;3.60;99.90
5392;DHT22;2719;53.624;9.786;2022-12-10T07:22:27;3.50;99.90
5392;DHT22;2719;53.624;9.786;2022-12-10T07:24:54;3.40;99.90
5392;DHT22;2719;53.624;9.786;2022-12-10T07:27:22;3.30;99.90
5392;DHT22;2719;53.624;9.786;2022-12-10T07:29:49;3.10;99.90
5392;DHT22;2719;53.624;9.786;2022-12-10T07:32:16;3.30;99.90
5392;DHT22;2719;53.624;9.786;2022-12-10T07:34:42;3.30;99.90
5392;DHT22;2719;53.624;9.786;2022-12-10T07:37:09;3.50;99.90
5392;DHT22;2719;53.624;9.786;2022-12-10T07:39:36;3.50;99.90
5392;DHT22;2719;53.624;9.786;2022-12-10T07:42:03;3.50;99.90
5392;DHT22;2719;53.624;9.786;2022-12-10T07:44:31;3.60;99.90
5392;DHT22;2719;53.624;9.786;2022-12-10T07:46:57;3.50;99.90
5392;DHT22;2719;53.624;9.786;2022-12-10T07:49:24;3.50;99.90
5392;DHT22;2719;53.624;9.786;2022-12-10T07:51:51;3.40;99.90
5392;DHT22;2719;53.624;9.786;2022-12-10T07:54:18;3.30;99.90
5392;DHT22;2719;53.624;9.786;2022-12-10T07:56:45;3.40;99.90
5392;DHT22;2719;53.624;9.786;2022-12-10T07:59:16;3.30;99.90
5392;DHT22;2719;53.624;9.786;2022-12-10T08:01:45;3.30;99.90
5392;DHT22;2719;53.624;9.786;2022-12-10T08:04:11;3.20;99.90
5392;DHT22;2719;53.624;9.786;2022-12-10T08:06:38;3.10;99.90
5392;DHT22;2719;53.624;9.786;2022-12-10T08:09:05;3.10;99.90
5392;DHT22;2719;53.624;9.786;2022-12-10T08:11:33;3.10;99.90
5392;DHT22;2719;53.624;9.786;2022-12-10T08:13:59;3.00;99.90
5392;DHT22;2719;53.624;9.786;2022-12-10T08:16:28;3.10;99.90
5392;DHT22;2719;53.624;9.786;2022-12-10T08:18:59;2.90;99.90
5392;DHT22;2719;53.624;9.786;2022-12-10T08:21:28;2.80;99.90
5392;DHT22;2719;53.624;9.786;2022-12-10T08:23:55;2.80;99.90
5392;DHT22;2719;53.624;9.786;2022-12-10T08:26:25;2.70;99.90
5392;DHT22;2719;53.624;9.786;2022-12-10T08:28:53;2.70;99.90
5392;DHT22;2719;53.624;9.786;2022-12-10T08:31:21;2.60;99.90
5392;DHT22;2719;53.624;9.786;2022-12-10T08:33:49;2.70;99.90
5392;DHT22;2719;53.624;9.786;2022-12-10T08:36:18;2.80;99.90
5392;DHT22;2719;53.624;9.786;2022-12-10T08:38:46;2.80;99.90
5392;DHT22;2719;53.624;9.786;2022-12-10T08:41:15;2.80;99.90
5392;DHT22;2719;53.624;9.786;2022-12-10T08:43:42;2.80;99.90
5392;DHT22;2719;53.624;9.786;2022-12-10T08:46:10;2.80;99.90
5392;DHT22;2719;53.624;9.786;2022-12-10T08:48:37;2.80;99.90
5392;DHT22;2719;53.624;9.786;2022-12-10T08:51:05;2.80;99.90
5392;DHT22;2719;53.624;9.786;2022-12-10T08:53:34;2.70;99.90
5392;DHT22;2719;53.624;9.786;2022-12-10T08:56:01;2.80;99.90
5392;DHT22;2719;53.624;9.786;2022-12-10T08:58:28;2.70;99.90
5392;DHT22;2719;53.624;9.786;2022-12-10T09:00:55;2.60;99.90
5392;DHT22;2719;53.624;9.786;2022-12-10T09:03:21;2.50;99.90
5392;DHT22;2719;53.624;9.786;2022-12-10T09:05:49;2.50;99.90
5392;DHT22;2719;53.624;9.786;2022-12-10T09:08:15;2.60;99.90
5392;DHT22;2719;53.624;9.786;2022-12-10T09:10:43;2.60;99.90
5392;DHT22;2719;53.624;9.786;2022-12-10T09:13:10;2.70;99.90
5392;DHT22;2719;53.624;9.786;2022-12-10T09:15:37;2.70;99.90
5392;DHT22;2719;53.624;9.786;2022-12-10T09:18:04;2.80;99.90
5392;DHT22;2719;53.624;9.786;2022-12-10T09:20:30;2.60;99.90
5392;DHT22;2719;53.624;9.786;2022-12-10T09:22:57;2.50;99.90
5392;DHT22;2719;53.624;9.786;2022-12-10T09:25:24;2.50;99.90
5392;DHT22;2719;53.624;9.786;2022-12-10T09:27:52;2.70;99.90
5392;DHT22;2719;53.624;9.786;2022-12-10T09:30:19;2.60;99.90
5392;DHT22;2719;53.624;9.786;2022-12-10T09:32:45;2.70;99.90
5392;DHT22;2719;53.624;9.786;2022-12-10T09:35:12;2.80;99.90
5392;DHT22;2719;53.624;9.786;2022-12-10T09:37:39;2.70;99.90
5392;DHT22;2719;53.624;9.786;2022-12-10T09:40:06;2.70;99.90
5392;DHT22;2719;53.624;9.786;2022-12-10T09:42:41;2.80;99.90
5392;DHT22;2719;53.624;9.786;2022-12-10T09:45:17;2.90;99.90
5392;DHT22;2719;53.624;9.786;2022-12-10T09:47:52;2.60;99.90
5392;DHT22;2719;53.624;9.786;2022-12-10T09:50:26;2.60;99.90
5392;DHT22;2719;53.624;9.786;2022-12-10T09:52:55;2.60;99.90
5392;DHT22;2719;53.624;9.786;2022-12-10T09:55:28;2.60;99.90
5392;DHT22;2719;53.624;9.786;2022-12-10T09:57:57;2.60;99.90
5392;DHT22;2719;53.624;9.786;2022-12-10T10:00:30;2.70;99.90
5392;DHT22;2719;53.624;9.786;2022-12-10T10:02:59;2.60;99.90
5392;DHT22;2719;53.624;9.786;2022-12-10T10:05:28;2.70;99.90
5392;DHT22;2719;53.624;9.786;2022-12-10T10:07:59;2.70;99.90
5392;DHT22;2719;53.624;9.786;2022-12-10T10:10:28;2.70;99.90
5392;DHT22;2719;53.624;9.786;2022-12-10T10:12:58;2.70;99.90
5392;DHT22;2719;53.624;9.786;2022-12-10T10:15:31;2.70;99.90
5392;DHT22;2719;53.624;9.786;2022-12-10T10:18:02;2.60;99.90
5392;DHT22;2719;53.624;9.786;2022-12-10T10:20:31;2.50;99.90
5392;DHT22;2719;53.624;9.786;2022-12-10T10:22:59;2.50;99.90
5392;DHT22;2719;53.624;9.786;2022-12-10T10:25:27;2.50;99.90
5392;DHT22;2719;53.624;9.786;2022-12-10T10:27:54;2.50;99.90
5392;DHT22;2719;53.624;9.786;2022-12-10T10:30:23;2.50;99.90
5392;DHT22;2719;53.624;9.786;2022-12-10T10:32:53;2.30;99.90
5392;DHT22;2719;53.624;9.786;2022-12-10T10:35:27;2.30;99.90
5392;DHT22;2719;53.624;9.786;2022-12-10T10:37:58;2.40;99.90
5392;DHT22;2719;53.624;9.786;2022-12-10T10:40:28;2.40;99.90
5392;DHT22;2719;53.624;9.786;2022-12-10T10:42:57;2.40;99.90
5392;DHT22;2719;53.624;9.786;2022-12-10T10:45:39;2.40;99.90
5392;DHT22;2719;53.624;9.786;2022-12-10T10:48:11;2.50;99.90
5392;DHT22;2719;53.624;9.786;2022-12-10T10:50:41;2.50;99.90
5392;DHT22;2719;53.624;9.786;2022-12-10T10:53:24;2.60;99.90
5392;DHT22;2719;53.624;9.786;2022-12-10T10:55:54;2.60;99.90
5392;DHT22;2719;53.624;9.786;2022-12-10T10:58:23;2.50;99.90
5392;DHT22;2719;53.624;9.786;2022-12-10T11:00:55;2.60;99.90
5392;DHT22;2719;53.624;9.786;2022-12-10T11:03:25;2.60;99.90
5392;DHT22;2719;53.624;9.786;2022-12-10T11:05:52;2.60;99.90
5392;DHT22;2719;53.624;9.786;2022-12-10T11:08:20;2.50;99.90
5392;DHT22;2719;53.624;9.786;2022-12-10T11:10:48;2.40;99.90
5392;DHT22;2719;53.624;9.786;2022-12-10T11:13:22;2.50;99.90
5392;DHT22;2719;53.624;9.786;2022-12-10T11:15:55;2.40;99.90
5392;DHT22;2719;53.624;9.786;2022-12-10T11:18:29;2.40;99.90
5392;DHT22;2719;53.624;9.786;2022-12-10T11:20:58;2.50;99.90
5392;DHT22;2719;53.624;9.786;2022-12-10T11:23:27;2.30;99.90
5392;DHT22;2719;53.624;9.786;2022-12-10T11:26:00;2.40;99.90
5392;DHT22;2719;53.624;9.786;2022-12-10T11:28:38;2.30;99.90
5392;DHT22;2719;53.624;9.786;2022-12-10T11:31:18;2.10;99.90
5392;DHT22;2719;53.624;9.786;2022-12-10T11:33:54;2.10;99.90
5392;DHT22;2719;53.624;9.786;2022-12-10T11:36:29;2.10;99.90
5392;DHT22;2719;53.624;9.786;2022-12-10T11:39:02;1.90;99.90
5392;DHT22;2719;53.624;9.786;2022-12-10T11:41:37;2.00;99.90
5392;DHT22;2719;53.624;9.786;2022-12-10T11:44:16;2.00;99.90
5392;DHT22;2719;53.624;9.786;2022-12-10T11:47:01;2.10;99.90
5392;DHT22;2719;53.624;9.786;2022-12-10T11:49:38;2.20;99.90
5392;DHT22;2719;53.624;9.786;2022-12-10T11:52:11;2.30;99.90
5392;DHT22;2719;53.624;9.786;2022-12-10T11:54:52;2.30;99.90
5392;DHT22;2719;53.624;9.786;2022-12-10T11:57:30;2.40;99.90
5392;DHT22;2719;53.624;9.786;2022-12-10T12:00:13;2.40;99.90
5392;DHT22;2719;53.624;9.786;2022-12-10T12:05:56;2.40;99.90
5392;DHT22;2719;53.624;9.786;2022-12-10T12:08:38;2.40;99.90
5392;DHT22;2719;53.624;9.786;2022-12-10T12:11:24;2.40;99.90
5392;DHT22;2719;53.624;9.786;2022-12-10T12:13:57;2.40;99.90
5392;DHT22;2719;53.624;9.786;2022-12-10T12:16:30;2.40;99.90
5392;DHT22;2719;53.624;9.786;2022-12-10T12:19:00;2.40;99.90
5392;DHT22;2719;53.624;9.786;2022-12-10T12:21:29;2.40;99.90
5392;DHT22;2719;53.624;9.786;2022-12-10T12:23:58;2.50;99.90
5392;DHT22;2719;53.624;9.786;2022-12-10T12:26:28;2.50;99.90
5392;DHT22;2719;53.624;9.786;2022-12-10T12:29:00;2.50;99.90
5392;DHT22;2719;53.624;9.786;2022-12-10T12:31:31;2.50;99.90
5392;DHT22;2719;53.624;9.786;2022-12-10T12:34:00;2.50;99.90
5392;DHT22;2719;53.624;9.786;2022-12-10T12:36:31;2.50;99.90
5392;DHT22;2719;53.624;9.786;2022-12-10T12:39:04;2.40;99.90
5392;DHT22;2719;53.624;9.786;2022-12-10T12:41:36;2.30;99.90
5392;DHT22;2719;53.624;9.786;2022-12-10T12:44:14;2.40;99.90
5392;DHT22;2719;53.624;9.786;2022-12-10T12:46:44;2.50;99.90
5392;DHT22;2719;53.624;9.786;2022-12-10T12:49:18;2.50;99.90
5392;DHT22;2719;53.624;9.786;2022-12-10T12:51:51;2.50;99.90
5392;DHT22;2719;53.624;9.786;2022-12-10T12:54:19;2.50;99.90
5392;DHT22;2719;53.624;9.786;2022-12-10T12:56:57;2.60;99.90
5392;DHT22;2719;53.624;9.786;2022-12-10T12:59:39;2.40;99.90
5392;DHT22;2719;53.624;9.786;2022-12-10T13:02:30;2.50;99.90
5392;DHT22;2719;53.624;9.786;2022-12-10T13:05:03;2.50;99.90
5392;DHT22;2719;53.624;9.786;2022-12-10T13:07:33;2.40;99.90
5392;DHT22;2719;53.624;9.786;2022-12-10T13:10:22;2.50;99.90
5392;DHT22;2719;53.624;9.786;2022-12-10T13:12:52;2.50;99.90
5392;DHT22;2719;53.624;9.786;2022-12-10T13:15:34;2.50;99.90
5392;DHT22;2719;53.624;9.786;2022-12-10T13:18:21;2.50;99.90
5392;DHT22;2719;53.624;9.786;2022-12-10T13:23:49;2.50;99.90
5392;DHT22;2719;53.624;9.786;2022-12-10T13:26:24;2.50;99.90
5392;DHT22;2719;53.624;9.786;2022-12-10T13:28:53;2.40;99.90
5392;DHT22;2719;53.624;9.786;2022-12-10T13:31:36;2.50;99.90
5392;DHT22;2719;53.624;9.786;2022-12-10T13:34:23;2.60;99.90
5392;DHT22;2719;53.624;9.786;2022-12-10T13:37:18;2.50;99.90
5392;DHT22;2719;53.624;9.786;2022-12-10T13:40:02;2.50;99.90
5392;DHT22;2719;53.624;9.786;2022-12-10T13:42:33;2.60;99.90
5392;DHT22;2719;53.624;9.786;2022-12-10T13:45:28;2.60;99.90
5392;DHT22;2719;53.624;9.786;2022-12-10T13:48:17;2.60;99.90
5392;DHT22;2719;53.624;9.786;2022-12-10T13:50:47;2.50;99.90
5392;DHT22;2719;53.624;9.786;2022-12-10T13:53:20;2.40;99.90
5392;DHT22;2719;53.624;9.786;2022-12-10T13:55:55;2.40;99.90
5392;DHT22;2719;53.624;9.786;2022-12-10T13:58:41;2.40;99.90
5392;DHT22;2719;53.624;9.786;2022-12-10T14:01:13;2.50;99.90
5392;DHT22;2719;53.624;9.786;2022-12-10T14:03:55;2.40;99.90
5392;DHT22;2719;53.624;9.786;2022-12-10T14:06:32;2.50;99.90
5392;DHT22;2719;53.624;9.786;2022-12-10T14:09:04;2.50;99.90
5392;DHT22;2719;53.624;9.786;2022-12-10T14:11:36;2.60;99.90
5392;DHT22;2719;53.624;9.786;2022-12-10T14:14:05;2.60;99.90
5392;DHT22;2719;53.624;9.786;2022-12-10T14:16:33;2.60;99.90
5392;DHT22;2719;53.624;9.786;2022-12-10T14:19:04;2.60;99.90
5392;DHT22;2719;53.624;9.786;2022-12-10T14:21:33;2.60;99.90
5392;DHT22;2719;53.624;9.786;2022-12-10T14:24:01;2.40;99.90
5392;DHT22;2719;53.624;9.786;2022-12-10T14:26:30;2.40;99.90
5392;DHT22;2719;53.624;9.786;2022-12-10T14:29:00;2.50;99.90
5392;DHT22;2719;53.624;9.786;2022-12-10T14:31:31;2.50;99.90
5392;DHT22;2719;53.624;9.786;2022-12-10T14:34:01;2.60;99.90
5392;DHT22;2719;53.624;9.786;2022-12-10T14:36:31;2.60;99.90
5392;DHT22;2719;53.624;9.786;2022-12-10T14:38:59;2.60;99.90
5392;DHT22;2719;53.624;9.786;2022-12-10T14:41:29;2.60;99.90
5392;DHT22;2719;53.624;9.786;2022-12-10T14:44:01;2.60;99.90
5392;DHT22;2719;53.624;9.786;2022-12-10T14:46:30;2.60;99.90
5392;DHT22;2719;53.624;9.786;2022-12-10T14:48:57;2.60;99.90
5392;DHT22;2719;53.624;9.786;2022-12-10T14:51:25;2.50;99.90
5392;DHT22;2719;53.624;9.786;2022-12-10T14:53:54;2.40;99.90
5392;DHT22;2719;53.624;9.786;2022-12-10T14:56:24;2.40;99.90
5392;DHT22;2719;53.624;9.786;2022-12-10T14:58:56;2.40;99.90
5392;DHT22;2719;53.624;9.786;2022-12-10T15:01:29;2.40;99.90
5392;DHT22;2719;53.624;9.786;2022-12-10T15:03:58;2.50;99.90
5392;DHT22;2719;53.624;9.786;2022-12-10T15:06:26;2.50;99.90
5392;DHT22;2719;53.624;9.786;2022-12-10T15:08:55;2.40;99.90
5392;DHT22;2719;53.624;9.786;2022-12-10T15:11:24;2.40;99.90
5392;DHT22;2719;53.624;9.786;2022-12-10T15:13:53;2.40;99.90
5392;DHT22;2719;53.624;9.786;2022-12-10T15:16:30;2.40;99.90
5392;DHT22;2719;53.624;9.786;2022-12-10T15:19:08;2.40;99.90
5392;DHT22;2719;53.624;9.786;2022-12-10T15:21:41;2.50;99.90
5392;DHT22;2719;53.624;9.786;2022-12-10T15:24:14;2.40;99.90
5392;DHT22;2719;53.624;9.786;2022-12-10T15:26:43;2.40;99.90
5392;DHT22;2719;53.624;9.786;2022-12-10T15:32:05;2.30;99.90
5392;DHT22;2719;53.624;9.786;2022-12-10T15:34:39;2.20;99.90
5392;DHT22;2719;53.624;9.786;2022-12-10T15:37:19;2.20;99.90
5392;DHT22;2719;53.624;9.786;2022-12-10T15:39:50;2.20;99.90
5392;DHT22;2719;53.624;9.786;2022-12-10T15:42:30;2.20;99.90
5392;DHT22;2719;53.624;9.786;2022-12-10T15:45:01;2.10;99.90
5392;DHT22;2719;53.624;9.786;2022-12-10T15:47:31;2.10;99.90
5392;DHT22;2719;53.624;9.786;2022-12-10T15:50:00;2.20;99.90
5392;DHT22;2719;53.624;9.786;2022-12-10T15:52:29;2.20;99.90
5392;DHT22;2719;53.624;9.786;2022-12-10T15:54:58;2.30;99.90
5392;DHT22;2719;53.624;9.786;2022-12-10T15:57:26;2.30;99.90
5392;DHT22;2719;53.624;9.786;2022-12-10T15:59:55;2.30;99.90
5392;DHT22;2719;53.624;9.786;2022-12-10T16:02:32;2.40;99.90
5392;DHT22;2719;53.624;9.786;2022-12-10T16:05:01;2.40;99.90
5392;DHT22;2719;53.624;9.786;2022-12-10T16:07:27;2.40;99.90
5392;DHT22;2719;53.624;9.786;2022-12-10T16:09:54;2.40;99.90
5392;DHT22;2719;53.624;9.786;2022-12-10T16:12:21;2.40;99.90
5392;DHT22;2719;53.624;9.786;2022-12-10T16:14:50;2.50;99.90
5392;DHT22;2719;53.624;9.786;2022-12-10T16:17:20;2.50;99.90
5392;DHT22;2719;53.624;9.786;2022-12-10T16:19:48;2.40;99.90
5392;DHT22;2719;53.624;9.786;2022-12-10T16:22:15;2.40;99.90
5392;DHT22;2719;53.624;9.786;2022-12-10T16:24:42;2.50;99.90
5392;DHT22;2719;53.624;9.786;2022-12-10T16:27:11;2.50;99.90
5392;DHT22;2719;53.624;9.786;2022-12-10T16:29:39;2.50;99.90
5392;DHT22;2719;53.624;9.786;2022-12-10T16:32:08;2.50;99.90
5392;DHT22;2719;53.624;9.786;2022-12-10T16:34:35;2.50;99.90
5392;DHT22;2719;53.624;9.786;2022-12-10T16:37:04;2.50;99.90
5392;DHT22;2719;53.624;9.786;2022-12-10T16:39:31;2.50;99.90
5392;DHT22;2719;53.624;9.786;2022-12-10T16:41:59;2.50;99.90
5392;DHT22;2719;53.624;9.786;2022-12-10T16:44:25;2.50;99.90
5392;DHT22;2719;53.624;9.786;2022-12-10T16:46:52;2.50;99.90